createdAt,value
2023-01-11T00:02:15.854Z,100008.59
2023-01-11T00:05:17.350Z,100007.34
2023-01-11T00:08:19.244Z,100007.69
2023-01-11T00:11:20.949Z,100015.84
2023-01-11T00:14:23.320Z,100011.84
2023-01-11T00:17:24.717Z,100003.97
2023-01-11T00:20:26.225Z,100007.34
2023-01-11T00:23:27.815Z,99997.47
2023-01-11T00:26:29.349Z,99998.88
2023-01-11T00:29:30.840Z,99986.69
2023-01-11T00:32:32.320Z,99985.50
2023-01-11T00:35:33.799Z,99988.88
2023-01-11T00:38:44.309Z,99990.81
2023-01-11T00:42:04.423Z,99985.22
2023-01-11T00:45:24.927Z,99988.78
2023-01-11T00:48:26.361Z,99977.75
2023-01-11T00:51:27.773Z,99972.19
2023-01-11T00:54:29.267Z,99966.16
2023-01-11T00:57:30.775Z,99950.81
2023-01-11T01:00:32.255Z,99960.53
2023-01-11T01:03:34.216Z,99957.66
2023-01-11T01:06:35.718Z,99951.34
2023-01-11T01:09:37.194Z,99944.50
2023-01-11T01:12:57.218Z,99940.97
2023-01-11T01:15:59.072Z,99938.91
2023-01-11T01:19:00.539Z,99937.72
2023-01-11T01:22:02.079Z,99931.06
2023-01-11T01:25:03.760Z,99927.50
2023-01-11T01:28:05.175Z,99919.81
2023-01-11T01:31:06.674Z,99919.03
2023-01-11T01:34:09.533Z,99916.84
2023-01-11T01:37:11.497Z,99916.56
2023-01-11T01:40:13.041Z,99919.31
2023-01-11T01:43:17.327Z,99912.44
2023-01-11T01:46:21.273Z,99920.81
2023-01-11T01:49:23.116Z,99916.00
2023-01-11T01:52:29.041Z,99924.66
2023-01-11T01:55:35.781Z,99913.00
2023-01-11T01:58:48.673Z,99913.53
2023-01-11T02:01:52.156Z,99922.06
2023-01-11T02:04:56.513Z,99922.47
2023-01-11T02:08:00.807Z,99915.75
2023-01-11T02:11:03.925Z,99924.53
2023-01-11T02:14:12.361Z,99927.41
2023-01-11T02:17:14.386Z,99921.50
2023-01-11T02:20:38.282Z,99931.41
2023-01-11T02:24:06.576Z,99926.31
2023-01-11T02:27:32.659Z,99928.69
2023-01-11T02:30:38.532Z,99920.81
2023-01-11T02:33:57.010Z,99912.44
2023-01-11T02:37:27.833Z,99908.03
2023-01-11T02:40:54.138Z,99899.91
2023-01-11T02:44:30.340Z,99902.38
2023-01-11T02:47:53.554Z,99897.81
2023-01-11T02:51:07.690Z,99896.78
2023-01-11T02:54:11.555Z,99887.13
2023-01-11T02:57:15.304Z,99893.19
2023-01-11T03:00:19.198Z,99887.53
2023-01-11T03:03:24.859Z,99881.31
2023-01-11T03:06:31.524Z,99882.44
2023-01-11T03:09:56.145Z,99887.13
2023-01-11T03:13:36.586Z,99891.25
2023-01-11T03:16:51.707Z,99881.75
2023-01-11T03:20:07.558Z,99875.19
2023-01-11T03:23:27.988Z,99875.03
2023-01-11T03:27:00.689Z,99865.41
2023-01-11T03:30:19.610Z,99869.53
2023-01-11T03:33:30.054Z,99856.63
2023-01-11T03:36:52.457Z,99857.41
2023-01-11T03:40:03.913Z,99849.72
2023-01-11T03:43:12.756Z,99847.84
2023-01-11T03:46:38.980Z,99853.56
2023-01-11T03:49:46.733Z,99859.84
2023-01-11T03:52:50.233Z,99852.00
2023-01-11T03:55:55.924Z,99853.81
2023-01-11T03:58:57.322Z,99852.31
2023-01-11T04:01:59.738Z,99843.31
2023-01-11T04:05:02.408Z,99844.03
2023-01-11T04:08:03.958Z,99837.44
2023-01-11T04:11:05.545Z,99826.06
2023-01-11T04:14:07.027Z,99811.84
2023-01-11T04:17:08.711Z,99814.38
2023-01-11T04:20:10.908Z,99816.88
2023-01-11T04:23:12.364Z,99812.19
2023-01-11T04:26:13.976Z,99820.44
2023-01-11T04:29:15.350Z,99807.16
2023-01-11T04:32:16.902Z,99790.75
2023-01-11T04:35:18.444Z,99795.56
2023-01-11T04:38:19.944Z,99788.00
2023-01-11T04:41:40.029Z,99785.97
2023-01-11T04:44:41.516Z,99791.66
2023-01-11T04:47:42.972Z,99790.25
2023-01-11T04:50:48.707Z,99796.75
2023-01-11T04:53:50.463Z,99799.84
2023-01-11T04:56:51.912Z,99797.81
2023-01-11T04:59:53.437Z,99808.22
2023-01-11T05:02:58.485Z,99801.97
2023-01-11T05:06:01.206Z,99793.47
2023-01-11T05:09:02.714Z,99799.81
2023-01-11T05:12:04.365Z,99784.28
2023-01-11T05:15:06.473Z,99775.88
2023-01-11T05:18:07.902Z,99776.88
2023-01-11T05:21:11.312Z,99764.63
2023-01-11T05:24:15.242Z,99759.94
2023-01-11T05:27:16.653Z,99749.84
2023-01-11T05:30:18.197Z,99749.69
2023-01-11T05:33:20.039Z,99735.94
2023-01-11T05:36:22.794Z,99738.34
2023-01-11T05:39:24.379Z,99729.19
2023-01-11T05:42:25.771Z,99734.44
2023-01-11T05:45:31.814Z,99732.81
2023-01-11T05:48:33.222Z,99718.22
2023-01-11T05:51:35.667Z,99721.78
2023-01-11T05:54:37.262Z,99715.88
2023-01-11T05:57:42.647Z,99713.66
2023-01-11T06:00:44.044Z,99732.53
2023-01-11T06:03:45.955Z,99742.03
2023-01-11T06:06:47.458Z,99734.28
2023-01-11T06:09:48.975Z,99735.09
2023-01-11T06:13:13.400Z,99724.16
2023-01-11T06:16:17.868Z,99724.94
2023-01-11T06:19:19.280Z,99727.06
2023-01-11T06:22:20.667Z,99726.41
2023-01-11T06:25:22.186Z,99716.09
2023-01-11T06:28:23.871Z,99714.28
2023-01-11T06:31:25.308Z,99714.44
2023-01-11T06:34:26.701Z,99697.91
2023-01-11T06:37:28.092Z,99690.06
2023-01-11T06:40:29.572Z,99689.50
2023-01-11T06:43:31.734Z,99681.66
2023-01-11T06:46:33.149Z,99677.88
2023-01-11T06:49:34.600Z,99684.72
2023-01-11T06:52:36.035Z,99679.84
2023-01-11T06:55:37.434Z,99688.75
2023-01-11T06:58:38.886Z,99686.94
2023-01-11T07:01:40.559Z,99694.56
2023-01-11T07:04:42.097Z,99684.59
2023-01-11T07:07:44.073Z,99683.81
2023-01-11T07:10:45.571Z,99678.38
2023-01-11T07:13:46.989Z,99680.81
2023-01-11T07:16:48.410Z,99674.03
2023-01-11T07:19:49.810Z,99682.53
2023-01-11T07:22:51.632Z,99679.28
2023-01-11T07:25:53.070Z,99683.72
2023-01-11T07:28:54.529Z,99679.63
2023-01-11T07:31:55.954Z,99686.41
2023-01-11T07:34:57.321Z,99694.13
2023-01-11T07:37:58.785Z,99694.81
2023-01-11T07:41:01.528Z,99689.34
2023-01-11T07:44:03.078Z,99685.47
2023-01-11T07:47:04.722Z,99676.75
2023-01-11T07:50:06.825Z,99670.66
2023-01-11T07:53:09.411Z,99667.22
2023-01-11T07:56:10.857Z,99673.41
2023-01-11T07:59:12.356Z,99670.59
2023-01-11T08:02:13.851Z,99664.59
2023-01-11T08:05:15.338Z,99674.25
2023-01-11T08:08:16.715Z,99677.81
2023-01-11T08:11:37.033Z,99679.16
2023-01-11T08:14:41.246Z,99691.13
2023-01-11T08:17:42.778Z,99690.97
2023-01-11T08:20:45.497Z,99692.38
2023-01-11T08:23:47.361Z,99692.75
2023-01-11T08:26:48.865Z,99691.22
2023-01-11T08:29:50.291Z,99701.00
2023-01-11T08:32:51.821Z,99689.25
2023-01-11T08:35:53.260Z,99681.66
2023-01-11T08:38:55.913Z,99693.47
2023-01-11T08:41:58.402Z,99697.06
2023-01-11T08:44:59.861Z,99685.59
2023-01-11T08:48:01.279Z,99687.72
2023-01-11T08:51:02.811Z,99697.28
2023-01-11T08:54:04.513Z,99696.34
2023-01-11T08:57:05.954Z,99691.03
2023-01-11T09:00:09.840Z,99703.44
2023-01-11T09:03:13.077Z,99686.38
2023-01-11T09:06:14.502Z,99699.22
2023-01-11T09:09:15.950Z,99693.66
2023-01-11T09:12:18.147Z,99699.00
2023-01-11T09:15:19.795Z,99699.72
2023-01-11T09:18:21.184Z,99691.63
2023-01-11T09:21:23.459Z,99702.28
2023-01-11T09:24:24.894Z,99696.75
2023-01-11T09:27:26.568Z,99707.06
2023-01-11T09:30:28.346Z,99713.31
2023-01-11T09:33:29.915Z,99709.38
2023-01-11T09:36:32.979Z,99723.50
2023-01-11T09:39:35.420Z,99710.06
2023-01-11T09:42:39.859Z,99711.72
2023-01-11T09:45:46.923Z,99704.16
2023-01-11T09:48:53.338Z,99716.47
2023-01-11T09:52:05.488Z,99718.22
2023-01-11T09:55:15.218Z,99716.75
2023-01-11T09:58:36.378Z,99716.81
2023-01-11T10:01:55.244Z,99725.38
2023-01-11T10:05:09.587Z,99720.50
2023-01-11T10:18:41.880Z,99715.16
2023-01-11T10:19:48.048Z,99717.16
2023-01-11T10:22:55.563Z,99713.69
2023-01-11T10:26:02.902Z,99718.00
2023-01-11T10:29:16.327Z,99709.66
2023-01-11T10:32:53.179Z,99710.66
2023-01-11T10:36:17.496Z,99708.97
2023-01-11T10:39:47.335Z,99718.59
2023-01-11T10:42:56.951Z,99717.09
2023-01-11T10:46:18.172Z,99730.53
2023-01-11T10:49:36.969Z,99719.25
2023-01-11T10:52:59.960Z,99719.88
2023-01-11T10:56:24.970Z,99721.53
2023-01-11T10:59:34.692Z,99729.91
2023-01-11T11:03:04.070Z,99729.03
2023-01-11T11:06:41.343Z,99735.16
2023-01-11T11:09:56.935Z,99726.31
2023-01-11T11:17:26.233Z,99727.72
2023-01-11T11:20:36.021Z,99721.53
2023-01-11T11:23:47.009Z,99726.47
2023-01-11T11:27:30.895Z,99724.66
2023-01-11T11:30:39.582Z,99734.25
2023-01-11T11:33:48.440Z,99732.19
2023-01-11T11:36:55.321Z,99736.00
2023-01-11T11:40:02.045Z,99736.06
2023-01-11T11:43:23.838Z,99734.28
2023-01-11T11:46:38.354Z,99737.97
2023-01-11T11:49:42.285Z,99736.31
2023-01-11T11:53:01.464Z,99732.41
2023-01-11T11:56:14.497Z,99731.50
2023-01-11T11:59:20.323Z,99728.31
2023-01-11T12:02:27.748Z,99726.84
2023-01-11T12:05:29.264Z,99728.09
2023-01-11T12:08:34.249Z,99715.59
2023-01-11T12:11:39.195Z,99710.06
2023-01-11T12:14:40.761Z,99704.66
2023-01-11T12:17:42.497Z,99700.78
2023-01-11T12:20:44.686Z,99708.19
2023-01-11T12:23:46.701Z,99710.44
2023-01-11T12:27:03.069Z,99714.34
2023-01-11T12:30:13.717Z,99709.97
2023-01-11T12:33:26.457Z,99710.66
2023-01-11T12:36:30.624Z,99717.16
2023-01-11T12:39:35.269Z,99716.09
2023-01-11T12:42:52.117Z,99724.03
2023-01-11T12:46:15.759Z,99733.28
2023-01-11T12:49:44.437Z,99740.47
2023-01-11T12:53:10.229Z,99742.09
2023-01-11T12:56:45.586Z,99747.25
2023-01-11T13:00:13.668Z,99751.44
2023-01-11T13:03:43.040Z,99759.81
2023-01-11T13:07:05.737Z,99753.41
2023-01-11T13:10:26.282Z,99760.78
2023-01-11T13:13:52.900Z,99757.72
2023-01-11T13:17:22.902Z,99766.03
2023-01-11T13:20:48.665Z,99769.97
2023-01-11T13:24:17.859Z,99781.13
2023-01-11T13:27:22.962Z,99784.66
2023-01-11T13:30:25.188Z,99789.00
2023-01-11T13:33:30.899Z,99792.28
2023-01-11T13:36:45.655Z,99802.97
2023-01-11T13:40:24.691Z,99813.38
2023-01-11T13:43:50.450Z,99816.13
2023-01-11T13:47:02.614Z,99812.94
2023-01-11T13:50:20.075Z,99809.78
2023-01-11T13:54:02.610Z,99818.09
2023-01-11T13:57:10.558Z,99826.41
2023-01-11T14:00:39.077Z,99825.00
2023-01-11T14:03:40.569Z,99827.75
2023-01-11T14:06:54.209Z,99831.81
2023-01-11T14:10:05.730Z,99833.50
2023-01-11T14:14:00.238Z,99844.53
2023-01-11T14:17:26.331Z,99844.13
2023-01-11T14:20:53.041Z,99852.53
2023-01-11T14:23:55.163Z,99861.56
2023-01-11T14:27:24.499Z,99860.34
2023-01-11T14:30:40.150Z,99864.00
2023-01-11T14:33:54.495Z,99861.16
2023-01-11T14:37:05.188Z,99871.81
2023-01-11T14:40:37.763Z,99875.03
2023-01-11T14:44:01.181Z,99890.69
2023-01-11T14:47:38.364Z,99906.31
2023-01-11T14:51:01.723Z,99910.50
2023-01-11T14:54:22.493Z,99914.56
2023-01-11T14:57:39.756Z,99912.94
2023-01-11T15:00:41.114Z,99913.16
2023-01-11T15:03:47.762Z,99915.97
2023-01-11T15:06:54.880Z,99918.75
2023-01-11T15:10:04.157Z,99918.97
2023-01-11T15:13:14.824Z,99928.72
2023-01-11T15:16:42.021Z,99935.06
2023-01-11T15:19:44.858Z,99935.00
2023-01-11T15:22:46.666Z,99929.28
2023-01-11T15:25:59.351Z,99939.22
2023-01-11T15:29:05.466Z,99937.09
2023-01-11T15:32:24.275Z,99939.69
2023-01-11T15:35:33.888Z,99953.47
2023-01-11T15:38:49.291Z,99959.16
2023-01-11T15:42:11.998Z,99966.81
2023-01-11T15:45:19.085Z,99972.50
2023-01-11T15:48:44.880Z,99974.97
2023-01-11T15:52:24.906Z,99973.31
2023-01-11T15:55:49.350Z,99987.94
2023-01-11T15:59:09.464Z,99991.50
2023-01-11T16:02:13.926Z,100009.28
2023-01-11T16:05:22.901Z,100021.25
2023-01-11T16:08:31.602Z,100021.09
2023-01-11T16:12:00.493Z,100034.59
2023-01-11T16:15:23.260Z,100034.88
2023-01-11T16:18:30.205Z,100037.06
2023-01-11T16:21:36.118Z,100043.16
2023-01-11T16:24:47.569Z,100044.78
2023-01-11T16:27:54.093Z,100049.69
2023-01-11T16:31:05.768Z,100065.13
2023-01-11T16:34:07.614Z,100072.59
2023-01-11T16:37:28.027Z,100082.38
2023-01-11T16:40:42.556Z,100082.22
2023-01-11T16:44:06.239Z,100084.03
2023-01-11T16:47:13.931Z,100088.69
2023-01-11T16:50:21.732Z,100084.03
2023-01-11T16:53:25.032Z,100100.00
2023-01-11T16:56:26.479Z,100094.91
2023-01-11T16:59:34.551Z,100093.81
2023-01-11T17:02:38.662Z,100103.97
2023-01-11T17:05:40.311Z,100100.69
2023-01-11T17:08:47.192Z,100106.19
2023-01-11T17:11:50.437Z,100125.69
2023-01-11T17:15:15.420Z,100135.66
2023-01-11T17:18:17.754Z,100138.81
2023-01-11T17:21:26.623Z,100140.56
2023-01-11T17:24:28.785Z,100143.88
2023-01-11T17:27:33.812Z,100140.84
2023-01-11T17:30:36.935Z,100149.19
2023-01-11T17:33:38.322Z,100162.88
2023-01-11T17:36:41.214Z,100167.69
2023-01-11T17:39:48.487Z,100169.03
2023-01-11T17:43:09.647Z,100169.84
2023-01-11T17:46:18.169Z,100175.25
2023-01-11T17:49:24.714Z,100174.41
2023-01-11T17:52:27.134Z,100177.38
2023-01-11T17:55:28.809Z,100181.38
2023-01-11T17:58:33.567Z,100176.31
2023-01-11T18:01:36.664Z,100184.81
2023-01-11T18:04:38.631Z,100186.69
2023-01-11T18:07:51.181Z,100192.38
2023-01-11T18:10:55.591Z,100191.94
2023-01-11T18:14:00.600Z,100201.06
2023-01-11T18:17:26.645Z,100221.09
2023-01-11T18:20:54.394Z,100232.00
2023-01-11T18:24:11.060Z,100245.88
2023-01-11T18:27:23.845Z,100246.88
2023-01-11T18:30:31.527Z,100255.31
2023-01-11T18:33:34.037Z,100245.19
2023-01-11T18:36:35.488Z,100238.59
2023-01-11T18:39:37.106Z,100244.97
2023-01-11T18:42:39.247Z,100236.75
2023-01-11T18:45:43.746Z,100234.00
2023-01-11T18:48:45.526Z,100240.53
2023-01-11T18:51:47.040Z,100244.03
2023-01-11T18:54:48.708Z,100260.34
2023-01-11T18:57:50.274Z,100265.50
2023-01-11T19:00:51.737Z,100276.19
2023-01-11T19:03:53.322Z,100279.00
2023-01-11T19:06:54.841Z,100277.72
2023-01-11T19:09:56.380Z,100282.63
2023-01-11T19:12:57.934Z,100284.47
2023-01-11T19:16:01.647Z,100285.72
2023-01-11T19:19:03.179Z,100286.94
2023-01-11T19:22:05.840Z,100287.34
2023-01-11T19:25:09.423Z,100294.84
2023-01-11T19:28:10.839Z,100288.50
2023-01-11T19:31:12.441Z,100286.25
2023-01-11T19:34:14.259Z,100299.94
2023-01-11T19:37:15.741Z,100300.13
2023-01-11T19:40:19.768Z,100306.38
2023-01-11T19:43:21.224Z,100314.31
2023-01-11T19:46:31.771Z,100311.25
2023-01-11T19:49:33.901Z,100321.69
2023-01-11T19:52:35.299Z,100311.22
2023-01-11T19:55:37.907Z,100315.81
2023-01-11T19:58:39.309Z,100315.41
2023-01-11T20:01:41.331Z,100319.28
2023-01-11T20:04:42.961Z,100327.03
2023-01-11T20:07:44.368Z,100329.66
2023-01-11T20:10:47.557Z,100331.81
2023-01-11T20:13:52.016Z,100327.19
2023-01-11T20:16:53.539Z,100321.09
2023-01-11T20:19:55.173Z,100320.22
2023-01-11T20:22:56.657Z,100324.75
2023-01-11T20:26:06.610Z,100314.81
2023-01-11T20:29:08.208Z,100336.91
2023-01-11T20:32:31.516Z,100337.19
2023-01-11T20:35:32.016Z,100346.78
2023-01-11T20:38:33.464Z,100351.13
2023-01-11T20:41:47.427Z,100341.19
2023-01-11T20:44:48.942Z,100341.56
2023-01-11T20:47:50.340Z,100345.06
2023-01-11T20:50:51.749Z,100347.38
2023-01-11T20:53:53.235Z,100341.75
2023-01-11T20:56:54.790Z,100345.63
2023-01-11T20:59:56.324Z,100326.00
2023-01-11T21:02:57.803Z,100333.47
2023-01-11T21:06:06.222Z,100335.59
2023-01-11T21:09:09.248Z,100335.53
2023-01-11T21:12:10.687Z,100335.13
2023-01-11T21:15:12.095Z,100343.34
2023-01-11T21:18:13.507Z,100344.16
2023-01-11T21:21:17.543Z,100340.38
2023-01-11T21:24:19.077Z,100322.75
2023-01-11T21:27:20.587Z,100315.56
2023-01-11T21:30:23.258Z,100313.44
2023-01-11T21:33:24.660Z,100318.06
2023-01-11T21:36:28.262Z,100313.53
2023-01-11T21:39:29.723Z,100308.09
2023-01-11T21:42:31.122Z,100302.06
2023-01-11T21:45:32.493Z,100295.69
2023-01-11T21:48:34.074Z,100296.97
2023-01-11T21:51:36.109Z,100287.44
2023-01-11T21:54:37.576Z,100289.44
2023-01-11T21:57:39.021Z,100288.47
2023-01-11T22:00:40.544Z,100278.09
2023-01-11T22:03:44.590Z,100282.34
2023-01-11T22:06:51.056Z,100274.50
2023-01-11T22:10:04.139Z,100278.31
2023-01-11T22:13:06.298Z,100282.59
2023-01-11T22:16:13.566Z,100282.56
2023-01-11T22:19:15.206Z,100281.91
2023-01-11T22:22:16.653Z,100298.72
2023-01-11T22:25:18.318Z,100297.56
2023-01-11T22:28:19.750Z,100301.31
2023-01-11T22:31:21.544Z,100295.41
2023-01-11T22:34:23.446Z,100298.22
2023-01-11T22:37:24.868Z,100290.13
2023-01-11T22:40:26.331Z,100291.94
2023-01-11T22:43:29.000Z,100281.56
2023-01-11T22:46:30.650Z,100281.63
2023-01-11T22:49:32.171Z,100287.88
2023-01-11T22:52:33.660Z,100297.63
2023-01-11T22:55:35.084Z,100298.16
2023-01-11T22:58:37.117Z,100300.22
2023-01-11T23:01:40.915Z,100300.25
2023-01-11T23:04:42.384Z,100296.81
2023-01-11T23:07:43.767Z,100292.44
2023-01-11T23:10:45.151Z,100292.09
2023-01-11T23:13:52.562Z,100283.31
2023-01-11T23:16:54.015Z,100286.41
2023-01-11T23:19:55.432Z,100285.88
2023-01-11T23:22:56.868Z,100286.38
2023-01-11T23:25:58.428Z,100296.66
2023-01-11T23:28:59.818Z,100300.84
2023-01-11T23:32:01.278Z,100307.50
2023-01-11T23:35:02.825Z,100308.97
2023-01-11T23:38:04.455Z,100302.06
2023-01-11T23:41:30.338Z,100304.69
2023-01-11T23:44:31.842Z,100312.69
2023-01-11T23:47:33.242Z,100303.94
2023-01-11T23:50:34.657Z,100307.94
2023-01-11T23:53:36.082Z,100303.63
2023-01-11T23:56:37.736Z,100306.31
2023-01-11T23:59:40.797Z,100299.19
